sensor_id;sensor_type;location;lat;lon;timestamp;temperature;humidity
40023;DHT22;25713;-35.352;149.036;2023-09-18T00:01:23;16.70;72.70
40023;DHT22;25713;-35.352;149.036;2023-09-18T00:03:53;16.80;72.40
40023;DHT22;25713;-35.352;149.036;2023-09-18T00:06:24;16.80;73.00
40023;DHT22;25713;-35.352;149.036;2023-09-18T00:08:54;16.90;72.30
40023;DHT22;25713;-35.352;149.036;2023-09-18T00:11:23;16.90;72.20
40023;DHT22;25713;-35.352;149.036;2023-09-18T00:13:53;16.90;71.70
40023;DHT22;25713;-35.352;149.036;2023-09-18T00:16:22;16.90;72.90
40023;DHT22;25713;-35.352;149.036;2023-09-18T00:18:51;16.90;71.20
40023;DHT22;25713;-35.352;149.036;2023-09-18T00:21:23;17.00;71.90
40023;DHT22;25713;-35.352;149.036;2023-09-18T00:23:53;17.00;71.80
40023;DHT22;25713;-35.352;149.036;2023-09-18T00:26:22;17.00;72.90
40023;DHT22;25713;-35.352;149.036;2023-09-18T00:28:55;17.20;71.30
40023;DHT22;25713;-35.352;149.036;2023-09-18T00:31:24;17.30;69.10
40023;DHT22;25713;-35.352;149.036;2023-09-18T00:33:54;17.40;67.20
40023;DHT22;25713;-35.352;149.036;2023-09-18T00:36:25;17.50;68.40
40023;DHT22;25713;-35.352;149.036;2023-09-18T00:38:55;17.60;67.40
40023;DHT22;25713;-35.352;149.036;2023-09-18T00:41:24;17.60;68.40
40023;DHT22;25713;-35.352;149.036;2023-09-18T00:43:54;17.70;66.60
40023;DHT22;25713;-35.352;149.036;2023-09-18T00:46:23;17.60;69.00
40023;DHT22;25713;-35.352;149.036;2023-09-18T00:48:53;17.80;66.60
40023;DHT22;25713;-35.352;149.036;2023-09-18T00:51:25;17.90;66.70
40023;DHT22;25713;-35.352;149.036;2023-09-18T00:53:55;17.90;66.70
40023;DHT22;25713;-35.352;149.036;2023-09-18T00:56:24;18.00;66.80
40023;DHT22;25713;-35.352;149.036;2023-09-18T00:58:54;18.00;66.30
40023;DHT22;25713;-35.352;149.036;2023-09-18T01:01:23;18.00;65.80
40023;DHT22;25713;-35.352;149.036;2023-09-18T01:03:53;18.10;66.10
40023;DHT22;25713;-35.352;149.036;2023-09-18T01:06:25;18.10;67.10
40023;DHT22;25713;-35.352;149.036;2023-09-18T01:08:55;18.10;66.40
40023;DHT22;25713;-35.352;149.036;2023-09-18T01:11:30;18.10;66.80
40023;DHT22;25713;-35.352;149.036;2023-09-18T01:14:07;18.30;64.60
40023;DHT22;25713;-35.352;149.036;2023-09-18T01:16:41;18.40;64.40
40023;DHT22;25713;-35.352;149.036;2023-09-18T01:19:13;18.40;66.10
40023;DHT22;25713;-35.352;149.036;2023-09-18T01:21:46;18.60;64.00
40023;DHT22;25713;-35.352;149.036;2023-09-18T01:24:18;18.60;65.50
40023;DHT22;25713;-35.352;149.036;2023-09-18T01:26:48;18.50;66.80
40023;DHT22;25713;-35.352;149.036;2023-09-18T01:29:17;18.50;66.70
40023;DHT22;25713;-35.352;149.036;2023-09-18T01:31:47;18.50;67.30
40023;DHT22;25713;-35.352;149.036;2023-09-18T01:34:17;18.50;68.10
40023;DHT22;25713;-35.352;149.036;2023-09-18T01:36:48;18.60;66.80
40023;DHT22;25713;-35.352;149.036;2023-09-18T01:39:21;18.70;66.00
40023;DHT22;25713;-35.352;149.036;2023-09-18T01:41:51;18.90;64.90
40023;DHT22;25713;-35.352;149.036;2023-09-18T01:44:21;19.10;65.30
40023;DHT22;25713;-35.352;149.036;2023-09-18T01:46:52;19.10;65.60
40023;DHT22;25713;-35.352;149.036;2023-09-18T01:49:28;19.10;65.90
40023;DHT22;25713;-35.352;149.036;2023-09-18T01:51:58;19.20;65.60
40023;DHT22;25713;-35.352;149.036;2023-09-18T01:54:30;19.10;66.10
40023;DHT22;25713;-35.352;149.036;2023-09-18T01:56:59;19.20;65.30
40023;DHT22;25713;-35.352;149.036;2023-09-18T01:59:29;19.40;65.00
40023;DHT22;25713;-35.352;149.036;2023-09-18T02:01:59;19.40;66.00
40023;DHT22;25713;-35.352;149.036;2023-09-18T02:04:29;19.30;66.60
40023;DHT22;25713;-35.352;149.036;2023-09-18T02:06:59;19.30;66.50
40023;DHT22;25713;-35.352;149.036;2023-09-18T02:09:30;19.30;67.20
40023;DHT22;25713;-35.352;149.036;2023-09-18T02:12:00;19.30;67.30
40023;DHT22;25713;-35.352;149.036;2023-09-18T02:14:30;19.50;65.70
40023;DHT22;25713;-35.352;149.036;2023-09-18T02:17:00;19.50;64.10
40023;DHT22;25713;-35.352;149.036;2023-09-18T02:19:29;19.70;65.50
40023;DHT22;25713;-35.352;149.036;2023-09-18T02:21:59;19.80;63.90
40023;DHT22;25713;-35.352;149.036;2023-09-18T02:24:30;19.90;64.20
40023;DHT22;25713;-35.352;149.036;2023-09-18T02:27:00;19.80;65.90
40023;DHT22;25713;-35.352;149.036;2023-09-18T02:29:29;19.90;65.50
40023;DHT22;25713;-35.352;149.036;2023-09-18T02:31:59;19.90;64.70
40023;DHT22;25713;-35.352;149.036;2023-09-18T02:34:28;20.00;65.10
40023;DHT22;25713;-35.352;149.036;2023-09-18T02:36:58;20.10;64.60
40023;DHT22;25713;-35.352;149.036;2023-09-18T02:39:29;20.10;64.60
40023;DHT22;25713;-35.352;149.036;2023-09-18T02:41:58;20.10;63.30
40023;DHT22;25713;-35.352;149.036;2023-09-18T02:44:28;20.10;63.90
40023;DHT22;25713;-35.352;149.036;2023-09-18T02:46:57;20.20;62.30
40023;DHT22;25713;-35.352;149.036;2023-09-18T02:49:27;20.50;61.10
40023;DHT22;25713;-35.352;149.036;2023-09-18T02:51:56;20.50;60.70
40023;DHT22;25713;-35.352;149.036;2023-09-18T02:54:26;20.50;61.50
40023;DHT22;25713;-35.352;149.036;2023-09-18T02:56:57;20.60;61.50
40023;DHT22;25713;-35.352;149.036;2023-09-18T02:59:27;20.70;60.20
40023;DHT22;25713;-35.352;149.036;2023-09-18T03:01:56;20.60;62.20
40023;DHT22;25713;-35.352;149.036;2023-09-18T03:04:26;20.60;61.90
40023;DHT22;25713;-35.352;149.036;2023-09-18T03:06:56;20.60;62.50
40023;DHT22;25713;-35.352;149.036;2023-09-18T03:09:26;20.70;62.10
40023;DHT22;25713;-35.352;149.036;2023-09-18T03:11:58;20.70;63.20
40023;DHT22;25713;-35.352;149.036;2023-09-18T03:14:26;20.60;64.00
40023;DHT22;25713;-35.352;149.036;2023-09-18T03:16:56;20.70;59.30
40023;DHT22;25713;-35.352;149.036;2023-09-18T03:19:26;20.90;59.00
40023;DHT22;25713;-35.352;149.036;2023-09-18T03:21:55;20.80;58.30
40023;DHT22;25713;-35.352;149.036;2023-09-18T03:24:25;20.90;57.30
40023;DHT22;25713;-35.352;149.036;2023-09-18T03:26:57;20.90;56.00
40023;DHT22;25713;-35.352;149.036;2023-09-18T03:29:26;20.90;58.50
40023;DHT22;25713;-35.352;149.036;2023-09-18T03:31:56;20.90;56.00
40023;DHT22;25713;-35.352;149.036;2023-09-18T03:34:25;21.00;54.20
40023;DHT22;25713;-35.352;149.036;2023-09-18T03:36:55;21.00;55.60
40023;DHT22;25713;-35.352;149.036;2023-09-18T03:39:24;21.00;56.10
40023;DHT22;25713;-35.352;149.036;2023-09-18T03:41:54;21.10;55.10
40023;DHT22;25713;-35.352;149.036;2023-09-18T03:44:26;21.20;53.40
40023;DHT22;25713;-35.352;149.036;2023-09-18T03:46:55;21.20;54.80
40023;DHT22;25713;-35.352;149.036;2023-09-18T03:49:26;21.20;55.70
40023;DHT22;25713;-35.352;149.036;2023-09-18T03:51:56;21.20;54.50
40023;DHT22;25713;-35.352;149.036;2023-09-18T03:54:25;21.00;55.90
40023;DHT22;25713;-35.352;149.036;2023-09-18T03:56:55;21.20;53.50
40023;DHT22;25713;-35.352;149.036;2023-09-18T03:59:26;21.30;52.10
40023;DHT22;25713;-35.352;149.036;2023-09-18T04:01:56;21.30;52.80
40023;DHT22;25713;-35.352;149.036;2023-09-18T04:04:25;21.20;54.90
40023;DHT22;25713;-35.352;149.036;2023-09-18T04:06:55;21.20;55.30
40023;DHT22;25713;-35.352;149.036;2023-09-18T04:09:24;21.30;54.60
40023;DHT22;25713;-35.352;149.036;2023-09-18T04:11:54;21.20;54.80
40023;DHT22;25713;-35.352;149.036;2023-09-18T04:14:26;21.30;53.80
40023;DHT22;25713;-35.352;149.036;2023-09-18T04:16:55;21.30;52.20
40023;DHT22;25713;-35.352;149.036;2023-09-18T04:19:25;21.40;54.00
40023;DHT22;25713;-35.352;149.036;2023-09-18T04:21:54;21.30;54.00
40023;DHT22;25713;-35.352;149.036;2023-09-18T04:24:25;21.30;53.60
40023;DHT22;25713;-35.352;149.036;2023-09-18T04:26:55;21.30;51.80
40023;DHT22;25713;-35.352;149.036;2023-09-18T04:29:26;21.40;51.80
40023;DHT22;25713;-35.352;149.036;2023-09-18T04:31:56;21.40;53.00
40023;DHT22;25713;-35.352;149.036;2023-09-18T04:34:25;21.40;53.10
40023;DHT22;25713;-35.352;149.036;2023-09-18T04:36:54;21.50;50.90
40023;DHT22;25713;-35.352;149.036;2023-09-18T04:39:24;21.60;51.80
40023;DHT22;25713;-35.352;149.036;2023-09-18T04:41:54;21.60;51.00
40023;DHT22;25713;-35.352;149.036;2023-09-18T04:44:23;21.50;53.60
40023;DHT22;25713;-35.352;149.036;2023-09-18T04:46:54;21.40;54.00
40023;DHT22;25713;-35.352;149.036;2023-09-18T04:49:24;21.40;51.40
40023;DHT22;25713;-35.352;149.036;2023-09-18T04:51:54;21.60;50.40
40023;DHT22;25713;-35.352;149.036;2023-09-18T04:54:25;21.60;51.90
40023;DHT22;25713;-35.352;149.036;2023-09-18T04:56:54;21.60;51.40
40023;DHT22;25713;-35.352;149.036;2023-09-18T04:59:24;21.50;53.50
40023;DHT22;25713;-35.352;149.036;2023-09-18T05:01:55;21.50;51.00
40023;DHT22;25713;-35.352;149.036;2023-09-18T05:04:25;21.60;51.10
40023;DHT22;25713;-35.352;149.036;2023-09-18T05:06:54;21.60;51.00
40023;DHT22;25713;-35.352;149.036;2023-09-18T05:09:24;21.60;51.50
40023;DHT22;25713;-35.352;149.036;2023-09-18T05:11:53;21.60;54.10
40023;DHT22;25713;-35.352;149.036;2023-09-18T05:14:23;21.50;51.80
40023;DHT22;25713;-35.352;149.036;2023-09-18T05:16:54;21.50;51.20
40023;DHT22;25713;-35.352;149.036;2023-09-18T05:19:23;21.60;51.30
40023;DHT22;25713;-35.352;149.036;2023-09-18T05:21:53;21.60;50.30
40023;DHT22;25713;-35.352;149.036;2023-09-18T05:24:22;21.70;49.80
40023;DHT22;25713;-35.352;149.036;2023-09-18T05:26:52;21.70;51.10
40023;DHT22;25713;-35.352;149.036;2023-09-18T05:29:21;21.70;50.50
40023;DHT22;25713;-35.352;149.036;2023-09-18T05:31:51;21.60;51.70
40023;DHT22;25713;-35.352;149.036;2023-09-18T05:34:22;21.60;50.60
40023;DHT22;25713;-35.352;149.036;2023-09-18T05:36:52;21.70;51.20
40023;DHT22;25713;-35.352;149.036;2023-09-18T05:39:22;21.70;51.10
40023;DHT22;25713;-35.352;149.036;2023-09-18T05:41:51;21.70;50.70
40023;DHT22;25713;-35.352;149.036;2023-09-18T05:44:21;21.70;49.90
40023;DHT22;25713;-35.352;149.036;2023-09-18T05:46:50;21.70;50.60
40023;DHT22;25713;-35.352;149.036;2023-09-18T05:49:22;21.80;50.70
40023;DHT22;25713;-35.352;149.036;2023-09-18T05:51:52;21.90;49.60
40023;DHT22;25713;-35.352;149.036;2023-09-18T05:54:21;21.90;50.80
40023;DHT22;25713;-35.352;149.036;2023-09-18T05:56:50;21.70;51.40
40023;DHT22;25713;-35.352;149.036;2023-09-18T05:59:20;21.80;52.30
40023;DHT22;25713;-35.352;149.036;2023-09-18T06:01:49;21.80;51.60
40023;DHT22;25713;-35.352;149.036;2023-09-18T06:04:21;21.70;51.50
40023;DHT22;25713;-35.352;149.036;2023-09-18T06:06:50;21.70;52.40
40023;DHT22;25713;-35.352;149.036;2023-09-18T06:09:20;21.70;50.80
40023;DHT22;25713;-35.352;149.036;2023-09-18T06:11:49;21.70;52.50
40023;DHT22;25713;-35.352;149.036;2023-09-18T06:14:18;21.70;51.00
40023;DHT22;25713;-35.352;149.036;2023-09-18T06:16:48;21.60;52.80
40023;DHT22;25713;-35.352;149.036;2023-09-18T06:19:18;21.50;51.50
40023;DHT22;25713;-35.352;149.036;2023-09-18T06:21:49;21.50;51.00
40023;DHT22;25713;-35.352;149.036;2023-09-18T06:24:18;21.50;52.20
40023;DHT22;25713;-35.352;149.036;2023-09-18T06:26:48;21.40;52.10
40023;DHT22;25713;-35.352;149.036;2023-09-18T06:29:17;21.40;53.30
40023;DHT22;25713;-35.352;149.036;2023-09-18T06:31:47;21.30;53.40
40023;DHT22;25713;-35.352;149.036;2023-09-18T06:34:16;21.30;52.30
40023;DHT22;25713;-35.352;149.036;2023-09-18T06:36:48;21.30;53.80
40023;DHT22;25713;-35.352;149.036;2023-09-18T06:39:17;21.20;54.40
40023;DHT22;25713;-35.352;149.036;2023-09-18T06:41:47;21.20;55.60
40023;DHT22;25713;-35.352;149.036;2023-09-18T06:44:16;21.20;56.70
40023;DHT22;25713;-35.352;149.036;2023-09-18T06:46:46;21.10;57.50
40023;DHT22;25713;-35.352;149.036;2023-09-18T06:49:15;21.10;58.10
40023;DHT22;25713;-35.352;149.036;2023-09-18T06:51:45;21.00;58.60
40023;DHT22;25713;-35.352;149.036;2023-09-18T06:54:16;20.90;58.40
40023;DHT22;25713;-35.352;149.036;2023-09-18T06:56:46;20.90;58.70
40023;DHT22;25713;-35.352;149.036;2023-09-18T06:59:15;20.80;58.30
40023;DHT22;25713;-35.352;149.036;2023-09-18T07:01:45;21.00;57.60
40023;DHT22;25713;-35.352;149.036;2023-09-18T07:04:14;20.90;58.10
40023;DHT22;25713;-35.352;149.036;2023-09-18T07:06:44;20.80;57.80
40023;DHT22;25713;-35.352;149.036;2023-09-18T07:09:16;20.80;58.30
40023;DHT22;25713;-35.352;149.036;2023-09-18T07:11:45;20.80;56.90
40023;DHT22;25713;-35.352;149.036;2023-09-18T07:14:14;20.80;57.60
40023;DHT22;25713;-35.352;149.036;2023-09-18T07:16:44;20.90;56.20
40023;DHT22;25713;-35.352;149.036;2023-09-18T07:19:14;20.80;58.50
40023;DHT22;25713;-35.352;149.036;2023-09-18T07:21:43;20.80;57.80
40023;DHT22;25713;-35.352;149.036;2023-09-18T07:24:13;20.80;57.10
40023;DHT22;25713;-35.352;149.036;2023-09-18T07:26:45;20.70;56.50
40023;DHT22;25713;-35.352;149.036;2023-09-18T07:29:16;20.70;57.80
40023;DHT22;25713;-35.352;149.036;2023-09-18T07:31:46;20.70;57.90
40023;DHT22;25713;-35.352;149.036;2023-09-18T07:34:16;20.60;58.60
40023;DHT22;25713;-35.352;149.036;2023-09-18T07:36:46;20.60;58.60
40023;DHT22;25713;-35.352;149.036;2023-09-18T07:39:15;20.60;58.70
40023;DHT22;25713;-35.352;149.036;2023-09-18T07:41:46;20.70;58.30
40023;DHT22;25713;-35.352;149.036;2023-09-18T07:44:20;20.70;59.20
40023;DHT22;25713;-35.352;149.036;2023-09-18T07:46:50;20.70;58.90
40023;DHT22;25713;-35.352;149.036;2023-09-18T07:49:20;20.70;58.80
40023;DHT22;25713;-35.352;149.036;2023-09-18T07:51:49;20.70;59.30
40023;DHT22;25713;-35.352;149.036;2023-09-18T07:54:19;20.80;59.00
40023;DHT22;25713;-35.352;149.036;2023-09-18T07:56:50;20.80;60.00
40023;DHT22;25713;-35.352;149.036;2023-09-18T07:59:20;20.80;60.30
40023;DHT22;25713;-35.352;149.036;2023-09-18T08:01:49;20.80;60.10
40023;DHT22;25713;-35.352;149.036;2023-09-18T08:04:19;20.80;60.50
40023;DHT22;25713;-35.352;149.036;2023-09-18T08:06:48;20.70;60.90
40023;DHT22;25713;-35.352;149.036;2023-09-18T08:09:18;20.60;61.10
40023;DHT22;25713;-35.352;149.036;2023-09-18T08:11:49;20.60;61.40
40023;DHT22;25713;-35.352;149.036;2023-09-18T08:14:19;20.50;61.90
40023;DHT22;25713;-35.352;149.036;2023-09-18T08:16:48;20.50;62.20
40023;DHT22;25713;-35.352;149.036;2023-09-18T08:19:25;20.40;62.30
40023;DHT22;25713;-35.352;149.036;2023-09-18T08:21:55;20.30;62.30
40023;DHT22;25713;-35.352;149.036;2023-09-18T08:24:24;20.20;62.80
40023;DHT22;25713;-35.352;149.036;2023-09-18T08:26:57;20.20;63.00
40023;DHT22;25713;-35.352;149.036;2023-09-18T08:29:27;20.10;62.80
40023;DHT22;25713;-35.352;149.036;2023-09-18T08:31:56;20.10;63.10
40023;DHT22;25713;-35.352;149.036;2023-09-18T08:34:25;20.10;63.40
40023;DHT22;25713;-35.352;149.036;2023-09-18T08:36:55;20.10;63.50
40023;DHT22;25713;-35.352;149.036;2023-09-18T08:39:24;20.00;63.70
40023;DHT22;25713;-35.352;149.036;2023-09-18T08:42:02;20.00;64.00
40023;DHT22;25713;-35.352;149.036;2023-09-18T08:44:32;20.00;63.80
40023;DHT22;25713;-35.352;149.036;2023-09-18T08:47:02;20.00;64.20
40023;DHT22;25713;-35.352;149.036;2023-09-18T08:49:33;20.00;64.70
40023;DHT22;25713;-35.352;149.036;2023-09-18T08:52:03;19.90;64.60
40023;DHT22;25713;-35.352;149.036;2023-09-18T08:54:33;19.90;64.80
40023;DHT22;25713;-35.352;149.036;2023-09-18T08:57:05;19.90;64.70
40023;DHT22;25713;-35.352;149.036;2023-09-18T08:59:36;19.80;64.70
40023;DHT22;25713;-35.352;149.036;2023-09-18T09:02:07;19.80;64.80
40023;DHT22;25713;-35.352;149.036;2023-09-18T09:04:37;19.80;65.10
40023;DHT22;25713;-35.352;149.036;2023-09-18T09:07:06;19.80;65.00
40023;DHT22;25713;-35.352;149.036;2023-09-18T09:09:36;19.80;65.10
40023;DHT22;25713;-35.352;149.036;2023-09-18T09:12:09;19.80;64.90
40023;DHT22;25713;-35.352;149.036;2023-09-18T09:14:38;19.80;64.90
40023;DHT22;25713;-35.352;149.036;2023-09-18T09:17:08;19.80;65.10
40023;DHT22;25713;-35.352;149.036;2023-09-18T09:19:38;19.80;65.50
40023;DHT22;25713;-35.352;149.036;2023-09-18T09:22:07;19.70;65.40
40023;DHT22;25713;-35.352;149.036;2023-09-18T09:24:41;19.80;65.50
40023;DHT22;25713;-35.352;149.036;2023-09-18T09:27:13;19.70;65.40
40023;DHT22;25713;-35.352;149.036;2023-09-18T09:29:43;19.70;65.40
40023;DHT22;25713;-35.352;149.036;2023-09-18T09:32:14;19.70;66.60
40023;DHT22;25713;-35.352;149.036;2023-09-18T09:34:44;19.60;66.00
40023;DHT22;25713;-35.352;149.036;2023-09-18T09:37:14;19.60;66.10
40023;DHT22;25713;-35.352;149.036;2023-09-18T09:39:53;19.60;66.50
40023;DHT22;25713;-35.352;149.036;2023-09-18T09:42:24;19.60;66.60
40023;DHT22;25713;-35.352;149.036;2023-09-18T09:45:03;19.50;66.40
40023;DHT22;25713;-35.352;149.036;2023-09-18T09:47:34;19.50;66.40
40023;DHT22;25713;-35.352;149.036;2023-09-18T09:50:08;19.50;66.50
40023;DHT22;25713;-35.352;149.036;2023-09-18T09:52:43;19.50;66.40
40023;DHT22;25713;-35.352;149.036;2023-09-18T09:55:23;19.50;66.50
40023;DHT22;25713;-35.352;149.036;2023-09-18T09:57:56;19.50;66.50
40023;DHT22;25713;-35.352;149.036;2023-09-18T10:00:28;19.40;66.70
40023;DHT22;25713;-35.352;149.036;2023-09-18T10:02:57;19.40;66.60
40023;DHT22;25713;-35.352;149.036;2023-09-18T10:05:31;19.40;66.80
40023;DHT22;25713;-35.352;149.036;2023-09-18T10:08:02;19.40;66.80
40023;DHT22;25713;-35.352;149.036;2023-09-18T10:10:35;19.40;66.90
40023;DHT22;25713;-35.352;149.036;2023-09-18T10:13:12;19.40;66.90
40023;DHT22;25713;-35.352;149.036;2023-09-18T10:15:45;19.40;67.30
40023;DHT22;25713;-35.352;149.036;2023-09-18T10:18:22;19.30;68.30
40023;DHT22;25713;-35.352;149.036;2023-09-18T10:21:00;19.30;67.90
40023;DHT22;25713;-35.352;149.036;2023-09-18T10:23:38;19.30;68.20
40023;DHT22;25713;-35.352;149.036;2023-09-18T10:26:11;19.30;68.10
40023;DHT22;25713;-35.352;149.036;2023-09-18T10:28:44;19.20;68.00
40023;DHT22;25713;-35.352;149.036;2023-09-18T10:31:14;19.20;68.20
40023;DHT22;25713;-35.352;149.036;2023-09-18T10:33:45;19.20;68.10
40023;DHT22;25713;-35.352;149.036;2023-09-18T10:36:15;19.20;68.20
40023;DHT22;25713;-35.352;149.036;2023-09-18T10:38:45;19.20;68.30
40023;DHT22;25713;-35.352;149.036;2023-09-18T10:41:15;19.20;68.40
40023;DHT22;25713;-35.352;149.036;2023-09-18T10:43:51;19.20;68.10
40023;DHT22;25713;-35.352;149.036;2023-09-18T10:46:22;19.10;68.20
40023;DHT22;25713;-35.352;149.036;2023-09-18T10:48:53;19.10;68.40
40023;DHT22;25713;-35.352;149.036;2023-09-18T10:51:23;19.10;68.60
40023;DHT22;25713;-35.352;149.036;2023-09-18T10:53:54;19.10;68.80
40023;DHT22;25713;-35.352;149.036;2023-09-18T10:56:25;19.10;68.80
40023;DHT22;25713;-35.352;149.036;2023-09-18T10:59:03;19.00;68.80
40023;DHT22;25713;-35.352;149.036;2023-09-18T11:01:35;19.00;69.00
40023;DHT22;25713;-35.352;149.036;2023-09-18T11:04:06;19.00;69.10
40023;DHT22;25713;-35.352;149.036;2023-09-18T11:07:01;19.00;69.00
40023;DHT22;25713;-35.352;149.036;2023-09-18T11:09:40;19.00;69.00
40023;DHT22;25713;-35.352;149.036;2023-09-18T11:12:10;19.00;69.30
40023;DHT22;25713;-35.352;149.036;2023-09-18T11:14:48;19.00;69.30
40023;DHT22;25713;-35.352;149.036;2023-09-18T11:17:32;19.00;69.20
40023;DHT22;25713;-35.352;149.036;2023-09-18T11:20:09;19.00;69.20
40023;DHT22;25713;-35.352;149.036;2023-09-18T11:22:39;19.00;69.40
40023;DHT22;25713;-35.352;149.036;2023-09-18T11:25:38;18.90;69.50
40023;DHT22;25713;-35.352;149.036;2023-09-18T11:28:08;19.00;69.90
40023;DHT22;25713;-35.352;149.036;2023-09-18T11:30:53;18.90;70.10
40023;DHT22;25713;-35.352;149.036;2023-09-18T11:33:32;18.90;70.00
40023;DHT22;25713;-35.352;149.036;2023-09-18T11:36:07;18.90;70.30
40023;DHT22;25713;-35.352;149.036;2023-09-18T11:38:52;18.90;70.00
40023;DHT22;25713;-35.352;149.036;2023-09-18T11:41:23;18.90;70.60
40023;DHT22;25713;-35.352;149.036;2023-09-18T11:43:55;18.80;70.40
40023;DHT22;25713;-35.352;149.036;2023-09-18T11:46:50;18.80;70.60
40023;DHT22;25713;-35.352;149.036;2023-09-18T11:49:21;18.90;70.80
40023;DHT22;25713;-35.352;149.036;2023-09-18T11:51:51;18.80;70.60
40023;DHT22;25713;-35.352;149.036;2023-09-18T11:54:21;18.80;70.70
40023;DHT22;25713;-35.352;149.036;2023-09-18T11:56:51;18.80;70.70
40023;DHT22;25713;-35.352;149.036;2023-09-18T11:59:34;18.80;70.90
40023;DHT22;25713;-35.352;149.036;2023-09-18T12:02:07;18.80;70.70
40023;DHT22;25713;-35.352;149.036;2023-09-18T12:04:36;18.70;71.10
40023;DHT22;25713;-35.352;149.036;2023-09-18T12:07:06;18.70;71.00
40023;DHT22;25713;-35.352;149.036;2023-09-18T12:09:36;18.70;71.40
40023;DHT22;25713;-35.352;149.036;2023-09-18T12:12:07;18.70;70.60
40023;DHT22;25713;-35.352;149.036;2023-09-18T12:14:37;18.70;71.30
40023;DHT22;25713;-35.352;149.036;2023-09-18T12:17:09;18.70;71.90
40023;DHT22;25713;-35.352;149.036;2023-09-18T12:19:52;18.70;71.80
40023;DHT22;25713;-35.352;149.036;2023-09-18T12:22:26;18.70;71.70
40023;DHT22;25713;-35.352;149.036;2023-09-18T12:25:09;18.70;72.10
40023;DHT22;25713;-35.352;149.036;2023-09-18T12:27:39;18.70;72.30
40023;DHT22;25713;-35.352;149.036;2023-09-18T12:30:09;18.60;72.20
40023;DHT22;25713;-35.352;149.036;2023-09-18T12:32:43;18.60;72.50
40023;DHT22;25713;-35.352;149.036;2023-09-18T12:35:14;18.60;72.50
40023;DHT22;25713;-35.352;149.036;2023-09-18T12:37:44;18.60;72.70
40023;DHT22;25713;-35.352;149.036;2023-09-18T12:40:24;18.60;72.70
40023;DHT22;25713;-35.352;149.036;2023-09-18T12:42:55;18.60;72.90
40023;DHT22;25713;-35.352;149.036;2023-09-18T12:45:26;18.60;72.90
40023;DHT22;25713;-35.352;149.036;2023-09-18T12:47:59;18.60;72.90
40023;DHT22;25713;-35.352;149.036;2023-09-18T12:50:28;18.60;73.00
40023;DHT22;25713;-35.352;149.036;2023-09-18T12:53:11;18.50;73.00
40023;DHT22;25713;-35.352;149.036;2023-09-18T12:55:39;18.50;73.00
40023;DHT22;25713;-35.352;149.036;2023-09-18T12:58:12;18.50;73.10
40023;DHT22;25713;-35.352;149.036;2023-09-18T13:00:46;18.50;73.20
40023;DHT22;25713;-35.352;149.036;2023-09-18T13:03:19;18.50;73.30
40023;DHT22;25713;-35.352;149.036;2023-09-18T13:05:49;18.50;73.20
40023;DHT22;25713;-35.352;149.036;2023-09-18T13:08:22;18.50;73.30
40023;DHT22;25713;-35.352;149.036;2023-09-18T13:10:52;18.40;73.40
40023;DHT22;25713;-35.352;149.036;2023-09-18T13:13:22;18.40;73.50
40023;DHT22;25713;-35.352;149.036;2023-09-18T13:15:51;18.40;73.50
40023;DHT22;25713;-35.352;149.036;2023-09-18T13:18:24;18.40;73.60
40023;DHT22;25713;-35.352;149.036;2023-09-18T13:20:54;18.40;73.70
40023;DHT22;25713;-35.352;149.036;2023-09-18T13:23:29;18.40;73.70
40023;DHT22;25713;-35.352;149.036;2023-09-18T13:26:03;18.40;73.80
40023;DHT22;25713;-35.352;149.036;2023-09-18T13:28:33;18.40;73.80
40023;DHT22;25713;-35.352;149.036;2023-09-18T13:31:03;18.40;73.80
40023;DHT22;25713;-35.352;149.036;2023-09-18T13:33:39;18.40;73.80
40023;DHT22;25713;-35.352;149.036;2023-09-18T13:36:08;18.30;73.80
40023;DHT22;25713;-35.352;149.036;2023-09-18T13:38:37;18.30;73.90
40023;DHT22;25713;-35.352;149.036;2023-09-18T13:41:07;18.30;73.90
40023;DHT22;25713;-35.352;149.036;2023-09-18T13:43:37;18.30;74.00
40023;DHT22;25713;-35.352;149.036;2023-09-18T13:46:06;18.30;74.00
40023;DHT22;25713;-35.352;149.036;2023-09-18T13:48:39;18.30;74.00
40023;DHT22;25713;-35.352;149.036;2023-09-18T13:51:08;18.30;74.10
40023;DHT22;25713;-35.352;149.036;2023-09-18T13:53:37;18.30;74.10
40023;DHT22;25713;-35.352;149.036;2023-09-18T13:56:07;18.20;74.20
40023;DHT22;25713;-35.352;149.036;2023-09-18T13:58:36;18.20;74.20
40023;DHT22;25713;-35.352;149.036;2023-09-18T14:01:06;18.20;74.40
40023;DHT22;25713;-35.352;149.036;2023-09-18T14:03:38;18.20;74.50
40023;DHT22;25713;-35.352;149.036;2023-09-18T14:06:08;18.20;74.40
40023;DHT22;25713;-35.352;149.036;2023-09-18T14:08:37;18.20;74.60
40023;DHT22;25713;-35.352;149.036;2023-09-18T14:11:06;18.20;74.70
40023;DHT22;25713;-35.352;149.036;2023-09-18T14:13:36;18.20;74.70
40023;DHT22;25713;-35.352;149.036;2023-09-18T14:16:05;18.10;74.70
40023;DHT22;25713;-35.352;149.036;2023-09-18T14:18:37;18.10;74.70
40023;DHT22;25713;-35.352;149.036;2023-09-18T14:21:07;18.10;74.70
40023;DHT22;25713;-35.352;149.036;2023-09-18T14:23:37;18.10;74.70
40023;DHT22;25713;-35.352;149.036;2023-09-18T14:26:06;18.10;74.70
40023;DHT22;25713;-35.352;149.036;2023-09-18T14:28:36;18.10;75.10
40023;DHT22;25713;-35.352;149.036;2023-09-18T14:31:06;18.10;74.90
40023;DHT22;25713;-35.352;149.036;2023-09-18T14:33:38;18.10;75.00
40023;DHT22;25713;-35.352;149.036;2023-09-18T14:36:08;18.10;75.00
40023;DHT22;25713;-35.352;149.036;2023-09-18T14:38:37;18.00;74.80
40023;DHT22;25713;-35.352;149.036;2023-09-18T14:41:07;18.00;75.00
40023;DHT22;25713;-35.352;149.036;2023-09-18T14:43:37;18.00;75.00
40023;DHT22;25713;-35.352;149.036;2023-09-18T14:46:06;18.00;75.30
40023;DHT22;25713;-35.352;149.036;2023-09-18T15:49:21;17.50;75.10
40023;DHT22;25713;-35.352;149.036;2023-09-18T15:51:51;17.40;75.70
40023;DHT22;25713;-35.352;149.036;2023-09-18T15:54:20;17.40;75.60
40023;DHT22;25713;-35.352;149.036;2023-09-18T15:56:50;17.40;75.80
40023;DHT22;25713;-35.352;149.036;2023-09-18T15:59:19;17.40;75.70
40023;DHT22;25713;-35.352;149.036;2023-09-18T16:01:48;17.50;75.80
40023;DHT22;25713;-35.352;149.036;2023-09-18T16:04:21;17.50;75.80
40023;DHT22;25713;-35.352;149.036;2023-09-18T16:06:51;17.50;75.80
40023;DHT22;25713;-35.352;149.036;2023-09-18T16:09:20;17.50;75.80
40023;DHT22;25713;-35.352;149.036;2023-09-18T16:11:50;17.50;75.90